地図

経路データ

SID SEASON NUMBER BASIN SUBBASIN NAME ISO_TIME NATURE LAT LON WMO_WIND WMO_PRES WMO_AGENCY TRACK_TYPE DIST2LAND LANDFALL IFLAG USA_AGENCY USA_ATCF_ID USA_LAT USA_LON USA_RECORD USA_STATUS USA_WIND USA_PRES USA_SSHS USA_R34_NE USA_R34_SE USA_R34_SW USA_R34_NW USA_R50_NE USA_R50_SE USA_R50_SW USA_R50_NW USA_R64_NE USA_R64_SE USA_R64_SW USA_R64_NW USA_POCI USA_ROCI USA_RMW USA_EYE TOKYO_LAT TOKYO_LON TOKYO_GRADE TOKYO_WIND TOKYO_PRES TOKYO_R50_DIR TOKYO_R50_LONG TOKYO_R50_SHORT TOKYO_R30_DIR TOKYO_R30_LONG TOKYO_R30_SHORT TOKYO_LAND CMA_LAT CMA_LON CMA_CAT CMA_WIND CMA_PRES HKO_LAT HKO_LON HKO_CAT HKO_WIND HKO_PRES NEWDELHI_LAT NEWDELHI_LON NEWDELHI_GRADE NEWDELHI_WIND NEWDELHI_PRES NEWDELHI_CI NEWDELHI_DP NEWDELHI_POCI REUNION_LAT REUNION_LON REUNION_TYPE REUNION_WIND REUNION_PRES REUNION_TNUM REUNION_CI REUNION_RMW REUNION_R34_NE REUNION_R34_SE REUNION_R34_SW REUNION_R34_NW REUNION_R50_NE REUNION_R50_SE REUNION_R50_SW REUNION_R50_NW REUNION_R64_NE REUNION_R64_SE REUNION_R64_SW REUNION_R64_NW BOM_LAT BOM_LON BOM_TYPE BOM_WIND BOM_PRES BOM_TNUM BOM_CI BOM_RMW BOM_R34_NE BOM_R34_SE BOM_R34_SW BOM_R34_NW BOM_R50_NE BOM_R50_SE BOM_R50_SW BOM_R50_NW BOM_R64_NE BOM_R64_SE BOM_R64_SW BOM_R64_NW BOM_ROCI BOM_POCI BOM_EYE BOM_POS_METHOD BOM_PRES_METHOD NADI_LAT NADI_LON NADI_CAT NADI_WIND NADI_PRES WELLINGTON_LAT WELLINGTON_LON WELLINGTON_WIND WELLINGTON_PRES DS824_LAT DS824_LON DS824_STAGE DS824_WIND DS824_PRES TD9636_LAT TD9636_LON TD9636_STAGE TD9636_WIND TD9636_PRES TD9635_LAT TD9635_LON TD9635_WIND TD9635_PRES TD9635_ROCI NEUMANN_LAT NEUMANN_LON NEUMANN_CLASS NEUMANN_WIND NEUMANN_PRES MLC_LAT MLC_LON MLC_CLASS MLC_WIND MLC_PRES USA_GUST BOM_GUST BOM_GUST_PER REUNION_GUST REUNION_GUST_PER USA_SEAHGT USA_SEARAD_NE USA_SEARAD_SE USA_SEARAD_SW USA_SEARAD_NW STORM_SPEED STORM_DIR
1936252N13312 1936 49 NA NA NOT_NAMED 1936-09-08 06:00:00 TS 13.1000 -48.5000 30 hurdat_atl main 992 992 O_____________ hurdat_atl AL131936 13.1000 -48.5000 TD 30 -1 8 312
1936252N13312 1936 49 NA NA NOT_NAMED 1936-09-08 09:00:00 TS 13.3500 -48.7874 main 1007 1003 P_____________ AL131936 13.3500 -48.7874 TD 30 -1 8 311
1936252N13312 1936 49 NA NA NOT_NAMED 1936-09-08 12:00:00 TS 13.6000 -49.1000 30 hurdat_atl main 1014 1010 O_____________ hurdat_atl AL131936 13.6000 -49.1000 TD 30 -1 8 308
1936252N13312 1936 49 NA NA NOT_NAMED 1936-09-08 15:00:00 TS 13.8500 -49.4500 main 1028 1025 P_____________ AL131936 13.8500 -49.4500 TD 32 -1 8 306
1936252N13312 1936 49 NA NA NOT_NAMED 1936-09-08 18:00:00 TS 14.1000 -49.8000 35 hurdat_atl main 1037 1032 O_____________ hurdat_atl AL131936 14.1000 -49.8000 TS 35 0 8 309
1936252N13312 1936 49 NA NA NOT_NAMED 1936-09-08 21:00:00 TS 14.3574 -50.1076 main 1052 1047 P_____________ AL131936 14.3574 -50.1076 TS 35 0 8 311
1936252N13312 1936 49 NA NA NOT_NAMED 1936-09-09 00:00:00 TS 14.6000 -50.4000 35 hurdat_atl main 1059 1055 O_____________ hurdat_atl AL131936 14.6000 -50.4000 TS 35 0 7 308
1936252N13312 1936 49 NA NA NOT_NAMED 1936-09-09 03:00:00 TS 14.8074 -50.6926 main 1067 1067 P_____________ AL131936 14.8074 -50.6926 TS 37 0 7 305
1936252N13312 1936 49 NA NA NOT_NAMED 1936-09-09 06:00:00 TS 15.0000 -51.0000 40 hurdat_atl main 1077 1074 O_____________ hurdat_atl AL131936 15.0000 -51.0000 TS 40 0 7 301
1936252N13312 1936 49 NA NA NOT_NAMED 1936-09-09 09:00:00 TS 15.1850 -51.3426 main 1088 1085 P_____________ AL131936 15.1850 -51.3426 TS 40 0 8 301
1936252N13312 1936 49 NA NA NOT_NAMED 1936-09-09 12:00:00 TS 15.4000 -51.7000 40 hurdat_atl main 1098 1095 O_____________ hurdat_atl AL131936 15.4000 -51.7000 TS 40 0 8 306
1936252N13312 1936 49 NA NA NOT_NAMED 1936-09-09 15:00:00 TS 15.6849 -52.0500 main 1114 1103 P_____________ AL131936 15.6849 -52.0500 TS 40 0 9 312
1936252N13312 1936 49 NA NA NOT_NAMED 1936-09-09 18:00:00 TS 16.0000 -52.4000 40 hurdat_atl main 1103 1088 O_____________ hurdat_atl AL131936 16.0000 -52.4000 TS 40 0 9 312
1936252N13312 1936 49 NA NA NOT_NAMED 1936-09-09 21:00:00 TS 16.2999 -52.7501 main 1085 1079 P_____________ AL131936 16.2999 -52.7501 TS 42 0 9 312
1936252N13312 1936 49 NA NA NOT_NAMED 1936-09-10 00:00:00 TS 16.6000 -53.1000 45 hurdat_atl main 1079 1067 O_____________ hurdat_atl AL131936 16.6000 -53.1000 TS 45 0 9 312
1936252N13312 1936 49 NA NA NOT_NAMED 1936-09-10 03:00:00 TS 16.8999 -53.4426 main 1074 1064 P_____________ AL131936 16.8999 -53.4426 TS 45 0 9 312
1936252N13312 1936 49 NA NA NOT_NAMED 1936-09-10 06:00:00 TS 17.2000 -53.8000 45 hurdat_atl main 1064 1056 O_____________ hurdat_atl AL131936 17.2000 -53.8000 TS 45 0 9 311
1936252N13312 1936 49 NA NA NOT_NAMED 1936-09-10 09:00:00 TS 17.5224 -54.1850 main 1056 1051 P_____________ AL131936 17.5224 -54.1850 TS 47 0 10 308
1936252N13312 1936 49 NA NA NOT_NAMED 1936-09-10 12:00:00 TS 17.8000 -54.6000 50 hurdat_atl main 1052 1033 O_____________ hurdat_atl AL131936 17.8000 -54.6000 TS 50 0 9 299
1936252N13312 1936 49 NA NA NOT_NAMED 1936-09-10 15:00:00 TS 17.9725 -55.0502 main 1035 1018 P_____________ AL131936 17.9725 -55.0502 TS 50 0 9 289
1936252N13312 1936 49 NA NA NOT_NAMED 1936-09-10 18:00:00 TS 18.1000 -55.5000 50 hurdat_atl main 1018 1003 O_____________ hurdat_atl AL131936 18.1000 -55.5000 TS 50 0 9 289
1936252N13312 1936 49 NA NA NOT_NAMED 1936-09-10 21:00:00 TS 18.2498 -55.9001 main 1003 981 P_____________ AL131936 18.2498 -55.9001 TS 52 0 8 292
1936252N13312 1936 49 NA NA NOT_NAMED 1936-09-11 00:00:00 TS 18.4000 -56.3000 55 hurdat_atl main 981 938 O_____________ hurdat_atl AL131936 18.4000 -56.3000 TS 55 0 9 290
1936252N13312 1936 49 NA NA NOT_NAMED 1936-09-11 03:00:00 TS 18.5500 -56.7500 main 928 886 P_____________ AL131936 18.5500 -56.7500 TS 55 0 9 289
1936252N13312 1936 49 NA NA NOT_NAMED 1936-09-11 06:00:00 TS 18.7000 -57.2000 55 hurdat_atl main 886 844 O_____________ hurdat_atl AL131936 18.7000 -57.2000 TS 55 0 9 290
1936252N13312 1936 49 NA NA NOT_NAMED 1936-09-11 09:00:00 TS 18.8500 -57.6225 main 844 803 P_____________ AL131936 18.8500 -57.6226 TS 57 0 8 292
1936252N13312 1936 49 NA NA NOT_NAMED 1936-09-11 12:00:00 TS 19.0000 -58.0000 60 hurdat_atl main 803 772 O_____________ hurdat_atl AL131936 19.0000 -58.0000 TS 60 0 7 294
1936252N13312 1936 49 NA NA NOT_NAMED 1936-09-11 15:00:00 TS 19.1499 -58.3226 main 772 743 P_____________ AL131936 19.1499 -58.3226 TS 60 0 6 298
1936252N13312 1936 49 NA NA NOT_NAMED 1936-09-11 18:00:00 TS 19.3000 -58.6000 60 hurdat_atl main 743 713 O_____________ hurdat_atl AL131936 19.3000 -58.6000 TS 60 0 6 300
1936252N13312 1936 49 NA NA NOT_NAMED 1936-09-11 21:00:00 TS 19.4500 -58.8725 main 713 696 P_____________ AL131936 19.4500 -58.8725 TS 62 0 6 303
1936252N13312 1936 49 NA NA NOT_NAMED 1936-09-12 00:00:00 TS 19.6000 -59.1000 65 hurdat_atl main 696 677 O_____________ hurdat_atl AL131936 19.6000 -59.1000 HU 65 1 5 309
1936252N13312 1936 49 NA NA NOT_NAMED 1936-09-12 03:00:00 TS 19.7500 -59.2725 main 677 669 P_____________ AL131936 19.7500 -59.2725 HU 65 1 4 317
1936252N13312 1936 49 NA NA NOT_NAMED 1936-09-12 06:00:00 TS 19.9000 -59.4000 65 hurdat_atl main 672 665 O_____________ hurdat_atl AL131936 19.9000 -59.4000 HU 65 1 4 324
1936252N13312 1936 49 NA NA NOT_NAMED 1936-09-12 09:00:00 TS 20.0425 -59.5001 main 665 657 P_____________ AL131936 20.0425 -59.5001 HU 65 1 4 328
1936252N13312 1936 49 NA NA NOT_NAMED 1936-09-12 12:00:00 TS 20.2000 -59.6000 65 hurdat_atl main 661 654 O_____________ hurdat_atl AL131936 20.2000 -59.6000 HU 65 1 4 326
1936252N13312 1936 49 NA NA NOT_NAMED 1936-09-12 15:00:00 TS 20.3850 -59.7500 main 657 642 P_____________ AL131936 20.3850 -59.7500 HU 65 1 5 325
1936252N13312 1936 49 NA NA NOT_NAMED 1936-09-12 18:00:00 TS 20.6000 -59.9000 65 hurdat_atl main 646 640 O_____________ hurdat_atl AL131936 20.6000 -59.9000 HU 65 1 5 332
1936252N13312 1936 49 NA NA NOT_NAMED 1936-09-12 21:00:00 TS 20.8350 -60.0076 main 645 644 P_____________ AL131936 20.8350 -60.0076 HU 67 1 5 340
1936252N13312 1936 49 NA NA NOT_NAMED 1936-09-13 00:00:00 TS 21.1000 -60.1000 70 hurdat_atl main 649 649 O_____________ hurdat_atl AL131936 21.1000 -60.1000 HU 70 1 6 342
1936252N13312 1936 49 NA NA NOT_NAMED 1936-09-13 03:00:00 TS 21.3850 -60.2000 main 656 653 P_____________ AL131936 21.3850 -60.2000 HU 70 1 6 343
1936252N13312 1936 49 NA NA NOT_NAMED 1936-09-13 06:00:00 TS 21.7000 -60.3000 70 hurdat_atl main 665 665 O_____________ hurdat_atl AL131936 21.7000 -60.3000 HU 70 1 7 344
1936252N13312 1936 49 NA NA NOT_NAMED 1936-09-13 09:00:00 TS 22.0425 -60.4000 main 675 675 P_____________ AL131936 22.0425 -60.4000 HU 70 1 7 345
1936252N13312 1936 49 NA NA NOT_NAMED 1936-09-13 12:00:00 TS 22.4000 -60.5000 70 hurdat_atl main 694 694 O_____________ hurdat_atl AL131936 22.4000 -60.5000 HU 70 1 7 346
1936252N13312 1936 49 NA NA NOT_NAMED 1936-09-13 15:00:00 TS 22.7575 -60.5926 main 716 716 P_____________ AL131936 22.7575 -60.5926 HU 72 1 7 345
1936252N13312 1936 49 NA NA NOT_NAMED 1936-09-13 18:00:00 TS 23.1000 -60.7000 75 hurdat_atl main 731 731 O_____________ hurdat_atl AL131936 23.1000 -60.7000 HU 75 1 7 341
1936252N13312 1936 49 NA NA NOT_NAMED 1936-09-13 21:00:00 TS 23.4000 -60.8277 main 748 742 P_____________ AL131936 23.4000 -60.8277 HU 75 1 7 335
1936252N13312 1936 49 NA NA NOT_NAMED 1936-09-14 00:00:00 TS 23.7000 -61.0000 75 hurdat_atl main 760 760 O_____________ hurdat_atl AL131936 23.7000 -61.0000 HU 75 1 8 330
1936252N13312 1936 49 NA NA NOT_NAMED 1936-09-14 03:00:00 TS 24.0500 -61.2349 main 783 777 P_____________ AL131936 24.0500 -61.2349 HU 77 1 8 327
1936252N13312 1936 49 NA NA NOT_NAMED 1936-09-14 06:00:00 TS 24.4000 -61.5000 80 hurdat_atl main 793 793 O_____________ hurdat_atl AL131936 24.4000 -61.5000 HU 80 1 8 325
1936252N13312 1936 49 NA NA NOT_NAMED 1936-09-14 09:00:00 TS 24.7300 -61.7575 main 806 806 P_____________ AL131936 24.7300 -61.7575 HU 82 1 8 323
1936252N13312 1936 49 NA NA NOT_NAMED 1936-09-14 12:00:00 TS 25.0000 -62.0000 85 hurdat_atl main 826 826 O_____________ hurdat_atl AL131936 25.0000 -62.0000 HU 85 2 6 318
1936252N13312 1936 49 NA NA NOT_NAMED 1936-09-14 15:00:00 TS 25.1724 -62.2002 main 837 832 P_____________ AL131936 25.1724 -62.2002 HU 87 2 5 310
1936252N13312 1936 49 NA NA NOT_NAMED 1936-09-14 18:00:00 TS 25.3000 -62.4000 90 hurdat_atl main 839 835 O_____________ hurdat_atl AL131936 25.3000 -62.4000 HU 90 2 5 305
1936252N13312 1936 49 NA NA NOT_NAMED 1936-09-14 21:00:00 TS 25.4500 -62.6425 main 851 841 P_____________ AL131936 25.4500 -62.6425 HU 90 2 5 304
1936252N13312 1936 49 NA NA NOT_NAMED 1936-09-15 00:00:00 TS 25.6000 -62.9000 90 hurdat_atl main 851 848 O_____________ hurdat_atl AL131936 25.6000 -62.9000 HU 90 2 5 304
1936252N13312 1936 49 NA NA NOT_NAMED 1936-09-15 03:00:00 TS 25.7499 -63.1426 main 855 855 P_____________ AL131936 25.7499 -63.1426 HU 92 2 5 304
1936252N13312 1936 49 NA NA NOT_NAMED 1936-09-15 06:00:00 TS 25.9000 -63.4000 95 hurdat_atl main 868 865 O_____________ hurdat_atl AL131936 25.9000 -63.4000 HU 95 2 6 300
1936252N13312 1936 49 NA NA NOT_NAMED 1936-09-15 09:00:00 TS 26.0273 -63.6704 main 871 871 P_____________ AL131936 26.0273 -63.6704 HU 97 3 6 299
1936252N13312 1936 49 NA NA NOT_NAMED 1936-09-15 12:00:00 TS 26.2000 -64.0000 100 hurdat_atl main 887 885 O_____________ hurdat_atl AL131936 26.2000 -64.0000 HU 100 3 8 303
1936252N13312 1936 49 NA NA NOT_NAMED 1936-09-15 15:00:00 TS 26.4625 -64.4201 main 913 912 P_____________ AL131936 26.4625 -64.4201 HU 102 3 10 307
1936252N13312 1936 49 NA NA NOT_NAMED 1936-09-15 18:00:00 TS 26.8000 -64.9000 105 hurdat_atl main 941 941 O_____________ hurdat_atl AL131936 26.8000 -64.9000 HU 105 3 11 310
1936252N13312 1936 49 NA NA NOT_NAMED 1936-09-15 21:00:00 TS 27.1849 -65.3926 main 968 968 P_____________ AL131936 27.1849 -65.3926 HU 105 3 12 312
1936252N13312 1936 49 NA NA NOT_NAMED 1936-09-16 00:00:00 TS 27.6000 -65.9000 105 hurdat_atl main 986 982 O_____________ hurdat_atl AL131936 27.6000 -65.9000 HU 105 3 12 313
1936252N13312 1936 49 NA NA NOT_NAMED 1936-09-16 03:00:00 TS 28.0072 -66.3928 main 1007 1005 P_____________ AL131936 28.0072 -66.3928 HU 105 3 12 312
1936252N13312 1936 49 NA NA NOT_NAMED 1936-09-16 06:00:00 TS 28.4000 -66.9000 105 hurdat_atl main 1012 1006 O_____________ hurdat_atl AL131936 28.4000 -66.9000 HU 105 3 12 309
1936252N13312 1936 49 NA NA NOT_NAMED 1936-09-16 09:00:00 TS 28.7575 -67.4503 main 1013 1006 P_____________ AL131936 28.7575 -67.4503 HU 105 3 12 306
1936252N13312 1936 49 NA NA NOT_NAMED 1936-09-16 12:00:00 TS 29.1000 -68.0000 105 hurdat_atl main 1013 955 O_____________ hurdat_atl AL131936 29.1000 -68.0000 HU 105 3 11 307
1936252N13312 1936 49 NA NA NOT_NAMED 1936-09-16 15:00:00 TS 29.4345 -68.4933 main 955 889 P_____________ AL131936 29.4345 -68.4933 HU 102 3 11 309
1936252N13312 1936 49 NA NA NOT_NAMED 1936-09-16 18:00:00 TS 29.8000 -69.0000 100 hurdat_atl main 889 816 O_____________ hurdat_atl AL131936 29.8000 -69.0000 HU 100 3 12 310
1936252N13312 1936 49 NA NA NOT_NAMED 1936-09-16 21:00:00 TS 30.2349 -69.5851 main 816 736 P_____________ AL131936 30.2349 -69.5851 HU 100 3 14 311
1936252N13312 1936 49 NA NA NOT_NAMED 1936-09-17 00:00:00 TS 30.7000 -70.2000 100 hurdat_atl main 736 664 O_____________ hurdat_atl AL131936 30.7000 -70.2000 HU 100 3 14 311
1936252N13312 1936 49 NA NA NOT_NAMED 1936-09-17 03:00:00 TS 31.1573 -70.8078 main 657 584 P_____________ AL131936 31.1573 -70.8078 HU 100 3 14 311
1936252N13312 1936 49 NA NA NOT_NAMED 1936-09-17 06:00:00 TS 31.6000 -71.4000 100 hurdat_atl main 584 520 O_____________ hurdat_atl AL131936 31.6000 -71.4000 HU 100 3 13 311
1936252N13312 1936 49 NA NA NOT_NAMED 1936-09-17 09:00:00 TS 32.0073 -71.9730 main 512 448 P_____________ AL131936 32.0073 -71.9730 HU 97 3 12 311
1936252N13312 1936 49 NA NA NOT_NAMED 1936-09-17 12:00:00 TS 32.4000 -72.5000 95 hurdat_atl main 448 383 O_____________ hurdat_atl AL131936 32.4000 -72.5000 HU 95 2 12 313
1936252N13312 1936 49 NA NA NOT_NAMED 1936-09-17 15:00:00 TS 32.7923 -72.9805 main 383 327 P_____________ AL131936 32.7923 -72.9805 HU 95 2 11 317
1936252N13312 1936 49 NA NA NOT_NAMED 1936-09-17 18:00:00 TS 33.2000 -73.4000 95 hurdat_atl main 327 271 O_____________ hurdat_atl AL131936 33.2000 -73.4000 HU 95 2 11 322
1936252N13312 1936 49 NA NA NOT_NAMED 1936-09-17 21:00:00 TS 33.6424 -73.7876 main 271 220 P_____________ AL131936 33.6424 -73.7876 HU 92 2 11 327
1936252N13312 1936 49 NA NA NOT_NAMED 1936-09-18 00:00:00 TS 34.1000 -74.1000 90 hurdat_atl main 220 176 O_____________ hurdat_atl AL131936 34.1000 -74.1000 HU 90 2 10 334
1936252N13312 1936 49 NA NA NOT_NAMED 1936-09-18 03:00:00 TS 34.5499 -74.3304 main 176 126 P_____________ AL131936 34.5499 -74.3304 HU 87 2 10 340
1936252N13312 1936 49 NA NA NOT_NAMED 1936-09-18 06:00:00 TS 35.0000 -74.5000 85 962 hurdat_atl main 126 84 O_____________ hurdat_atl AL131936 35.0000 -74.5000 HU 85 962 2 9 342
1936252N13312 1936 49 NA NA NOT_NAMED 1936-09-18 09:00:00 TS 35.4275 -74.6799 main 84 62 P_____________ AL131936 35.4275 -74.6799 HU 85 963 2 9 345
1936252N13312 1936 49 NA NA NOT_NAMED 1936-09-18 12:00:00 TS 35.9000 -74.8000 85 965 hurdat_atl main 63 63 O_____________ hurdat_atl AL131936 35.9000 -74.8000 HU 85 965 2 11 350
1936252N13312 1936 49 NA NA NOT_NAMED 1936-09-18 15:00:00 TS 36.4771 -74.8961 main 78 78 P_____________ AL131936 36.4771 -74.8961 HU 82 966 1 12 1
1936252N13312 1936 49 NA NA NOT_NAMED 1936-09-18 18:00:00 TS 37.1000 -74.8000 80 968 hurdat_atl main 91 83 O_____________ hurdat_atl AL131936 37.1000 -74.8000 HU 80 968 1 13 17
1936252N13312 1936 49 NA NA NOT_NAMED 1936-09-18 21:00:00 TS 37.6771 -74.4264 main 89 89 P_____________ AL131936 37.6771 -74.4264 HU 80 968 1 14 33
1936252N13312 1936 49 NA NA NOT_NAMED 1936-09-19 00:00:00 TS 38.3000 -73.8000 80 969 hurdat_atl main 113 108 O_____________ hurdat_atl AL131936 38.3000 -73.8000 HU 80 969 1 17 37
1936252N13312 1936 49 NA NA NOT_NAMED 1936-09-19 03:00:00 TS 39.0325 -73.1047 main 117 112 P_____________ AL131936 39.0325 -73.1047 HU 77 1 20 41
1936252N13312 1936 49 NA NA NOT_NAMED 1936-09-19 06:00:00 TS 39.8000 -72.1000 75 hurdat_atl main 119 108 O_____________ hurdat_atl AL131936 39.8000 -72.1000 HU 75 1 24 51
1936252N13312 1936 49 NA NA NOT_NAMED 1936-09-19 09:00:00 TS 40.5374 -70.6930 main 111 81 P_____________ AL131936 40.5374 -70.6930 HU 75 1 27 59
1936252N13312 1936 49 NA NA NOT_NAMED 1936-09-19 12:00:00 ET 41.2000 -69.0000 75 hurdat_atl main 99 99 O_____________ hurdat_atl AL131936 41.2000 -69.0000 EX 75 -4 28 65
1936252N13312 1936 49 NA NA NOT_NAMED 1936-09-19 15:00:00 ET 41.7424 -67.2638 main 223 144 P_____________ AL131936 41.7424 -67.2638 EX 75 -4 29 70
1936252N13312 1936 49 NA NA NOT_NAMED 1936-09-19 18:00:00 ET 42.2000 -65.4000 75 hurdat_atl main 144 131 O_____________ hurdat_atl AL131936 42.2000 -65.4000 EX 75 -4 30 73
1936252N13312 1936 49 NA NA NOT_NAMED 1936-09-19 21:00:00 ET 42.6268 -63.4501 main 169 169 P_____________ AL131936 42.6268 -63.4501 EX 72 -4 30 75
1936252N13312 1936 49 NA NA NOT_NAMED 1936-09-20 00:00:00 ET 43.0000 -61.4000 70 hurdat_atl main 218 218 O_____________ hurdat_atl AL131936 43.0000 -61.4000 EX 70 -4 31 77
1936252N13312 1936 49 NA NA NOT_NAMED 1936-09-20 03:00:00 ET 43.3201 -59.2626 main 254 254 P_____________ AL131936 43.3201 -59.2626 EX 67 -4 32 79
1936252N13312 1936 49 NA NA NOT_NAMED 1936-09-20 06:00:00 ET 43.6000 -57.1000 65 hurdat_atl main 339 329 O_____________ hurdat_atl AL131936 43.6000 -57.1000 EX 65 -4 32 80
1936252N13312 1936 49 NA NA NOT_NAMED 1936-09-20 09:00:00 ET 43.8566 -54.9236 main 316 277 P_____________ AL131936 43.8566 -54.9236 EX 65 -4 31 81
1936252N13312 1936 49 NA NA NOT_NAMED 1936-09-20 12:00:00 ET 44.1000 -52.9000 65 hurdat_atl main 278 272 O_____________ hurdat_atl AL131936 44.1000 -52.9000 EX 65 -4 28 80
1936252N13312 1936 49 NA NA NOT_NAMED 1936-09-20 15:00:00 ET 44.3389 -51.1284 main 303 298 P_____________ AL131936 44.3389 -51.1284 EX 65 -4 24 78
1936252N13312 1936 49 NA NA NOT_NAMED 1936-09-20 18:00:00 ET 44.6000 -49.6000 65 hurdat_atl main 356 356 O_____________ hurdat_atl AL131936 44.6000 -49.6000 EX 65 -4 21 74
1936252N13312 1936 49 NA NA NOT_NAMED 1936-09-20 21:00:00 ET 44.9030 -48.2767 main 419 419 P_____________ AL131936 44.9030 -48.2767 EX 65 -4 19 72
1936252N13312 1936 49 NA NA NOT_NAMED 1936-09-21 00:00:00 ET 45.2000 -47.0000 65 hurdat_atl main 494 494 O_____________ hurdat_atl AL131936 45.2000 -47.0000 EX 65 -4 20 75
1936252N13312 1936 49 NA NA NOT_NAMED 1936-09-21 03:00:00 ET 45.4155 -45.4911 main 589 589 P_____________ AL131936 45.4155 -45.4911 EX 65 -4 21 79
1936252N13312 1936 49 NA NA NOT_NAMED 1936-09-21 06:00:00 ET 45.6000 -44.0000 65 hurdat_atl main 687 687 O_____________ hurdat_atl AL131936 45.6000 -44.0000 EX 65 -4 20 79
1936252N13312 1936 49 NA NA NOT_NAMED 1936-09-21 09:00:00 ET 45.8138 -42.6603 main 775 775 P_____________ AL131936 45.8138 -42.6603 EX 67 -4 18 77
1936252N13312 1936 49 NA NA NOT_NAMED 1936-09-21 12:00:00 ET 46.0000 -41.5000 70 hurdat_atl main 857 857 O_____________ hurdat_atl AL131936 46.0000 -41.5000 EX 70 -4 15 78
1936252N13312 1936 49 NA NA NOT_NAMED 1936-09-21 15:00:00 ET 46.1208 -40.5240 main 929 929 P_____________ AL131936 46.1208 -40.5240 EX 70 -4 13 81
1936252N13312 1936 49 NA NA NOT_NAMED 1936-09-21 18:00:00 ET 46.2000 -39.7000 70 hurdat_atl main 986 986 O_____________ hurdat_atl AL131936 46.2000 -39.7000 EX 70 -4 11 84
1936252N13312 1936 49 NA NA NOT_NAMED 1936-09-21 21:00:00 ET 46.2330 -38.9706 main 1038 1038 P_____________ AL131936 46.2330 -38.9706 EX 67 -4 10 84
1936252N13312 1936 49 NA NA NOT_NAMED 1936-09-22 00:00:00 ET 46.3000 -38.2000 65 hurdat_atl main 1095 1095 O_____________ hurdat_atl AL131936 46.3000 -38.2000 EX 65 -4 13 79
1936252N13312 1936 49 NA NA NOT_NAMED 1936-09-22 03:00:00 ET 46.4713 -37.1509 main 1166 1166 P_____________ AL131936 46.4713 -37.1509 EX 62 -4 15 75
1936252N13312 1936 49 NA NA NOT_NAMED 1936-09-22 06:00:00 ET 46.7000 -36.1000 60 hurdat_atl main 1244 1244 O_____________ hurdat_atl AL131936 46.7000 -36.1000 EX 60 -4 14 71
1936252N13312 1936 49 NA NA NOT_NAMED 1936-09-22 09:00:00 ET 46.9267 -35.2593 main 1300 1300 P_____________ AL131936 46.9267 -35.2593 EX 57 -4 11 64
1936252N13312 1936 49 NA NA NOT_NAMED 1936-09-22 12:00:00 ET 47.2000 -34.6000 55 hurdat_atl main 1347 1347 O_____________ hurdat_atl AL131936 47.2000 -34.6000 EX 55 -4 10 53
1936252N13312 1936 49 NA NA NOT_NAMED 1936-09-22 15:00:00 ET 47.5192 -34.0964 main 1380 1380 P_____________ AL131936 47.5192 -34.0964 EX 55 -4 9 41
1936252N13312 1936 49 NA NA NOT_NAMED 1936-09-22 18:00:00 ET 47.9000 -33.7000 55 hurdat_atl main 1405 1405 O_____________ hurdat_atl AL131936 47.9000 -33.7000 EX 55 -4 10 34
1936252N13312 1936 49 NA NA NOT_NAMED 1936-09-22 21:00:00 ET 48.3124 -33.2842 main 1431 1410 P_____________ AL131936 48.3124 -33.2842 EX 52 -4 10 31
1936252N13312 1936 49 NA NA NOT_NAMED 1936-09-23 00:00:00 ET 48.8000 -32.9000 50 hurdat_atl main 1410 1368 O_____________ hurdat_atl AL131936 48.8000 -32.9000 EX 50 -4 12 24
1936252N13312 1936 49 NA NA NOT_NAMED 1936-09-23 03:00:00 ET 49.3773 -32.5491 main 1361 1311 P_____________ AL131936 49.3773 -32.5491 EX 50 -4 13 21
1936252N13312 1936 49 NA NA NOT_NAMED 1936-09-23 06:00:00 ET 50.0000 -32.2000 50 hurdat_atl main 1311 1262 O_____________ hurdat_atl AL131936 50.0000 -32.2000 EX 50 -4 14 20
1936252N13312 1936 49 NA NA NOT_NAMED 1936-09-23 09:00:00 ET 50.6448 -31.8153 main 1266 1223 P_____________ AL131936 50.6448 -31.8153 EX 50 -4 13 23
1936252N13312 1936 49 NA NA NOT_NAMED 1936-09-23 12:00:00 ET 51.2000 -31.4000 50 hurdat_atl main 1223 1200 O_____________ hurdat_atl AL131936 51.2000 -31.4000 EX 50 -4 11 30
1936252N13312 1936 49 NA NA NOT_NAMED 1936-09-23 15:00:00 ET 51.5674 -30.9565 main 1200 1197 P_____________ AL131936 51.5674 -30.9565 EX 50 -4 8 43
1936252N13312 1936 49 NA NA NOT_NAMED 1936-09-23 18:00:00 ET 51.8000 -30.5000 50 hurdat_atl main 1201 1196 O_____________ hurdat_atl AL131936 51.8000 -30.5000 EX 50 -4 7 55
1936252N13312 1936 49 NA NA NOT_NAMED 1936-09-23 21:00:00 ET 51.9725 -30.0267 main 1203 1203 P_____________ AL131936 51.9725 -30.0267 EX 50 -4 6 62
1936252N13312 1936 49 NA NA NOT_NAMED 1936-09-24 00:00:00 ET 52.1000 -29.6000 50 hurdat_atl main 1211 1206 O_____________ hurdat_atl AL131936 52.1000 -29.6000 EX 50 -4 5 58
1936252N13312 1936 49 NA NA NOT_NAMED 1936-09-24 03:00:00 ET 52.2572 -29.2847 main 1206 1206 P_____________ AL131936 52.2572 -29.2847 EX 50 -4 5 51
1936252N13312 1936 49 NA NA NOT_NAMED 1936-09-24 06:00:00 ET 52.4000 -29.0000 50 hurdat_atl main 1210 1210 O_____________ hurdat_atl AL131936 52.4000 -29.0000 EX 50 -4 5 56
1936252N13312 1936 49 NA NA NOT_NAMED 1936-09-24 09:00:00 ET 52.5150 -28.6499 main 1219 1200 P_____________ AL131936 52.5150 -28.6499 EX 47 -4 5 65
1936252N13312 1936 49 NA NA NOT_NAMED 1936-09-24 12:00:00 ET 52.6000 -28.3000 45 hurdat_atl main 1200 1180 O_____________ hurdat_atl AL131936 52.6000 -28.3000 EX 45 -4 4 68
1936252N13312 1936 49 NA NA NOT_NAMED 1936-09-24 15:00:00 ET 52.6799 -27.9927 main 1180 1159 P_____________ AL131936 52.6799 -27.9927 EX 45 -4 4 75
1936252N13312 1936 49 NA NA NOT_NAMED 1936-09-24 18:00:00 ET 52.7000 -27.7000 45 hurdat_atl main 1159 1140 O_____________ hurdat_atl AL131936 52.7000 -27.7000 EX 45 -4 4 99
1936252N13312 1936 49 NA NA NOT_NAMED 1936-09-24 21:00:00 ET 52.6225 -27.3921 main 1140 1121 P_____________ AL131936 52.6225 -27.3921 EX 42 -4 4 119
1936252N13312 1936 49 NA NA NOT_NAMED 1936-09-25 00:00:00 ET 52.5000 -27.1000 40 hurdat_atl main 1121 1108 O_____________ hurdat_atl AL131936 52.5000 -27.1000 EX 40 -4 4 124
1936252N13312 1936 49 NA NA NOT_NAMED 1936-09-25 03:00:00 ET 52.3924 -26.8425 main 1102 1089 P_____________ AL131936 52.3924 -26.8425 EX 40 -4 4 123
1936252N13312 1936 49 NA NA NOT_NAMED 1936-09-25 06:00:00 ET 52.3000 -26.6000 40 hurdat_atl main 1089 1076 O_____________ hurdat_atl AL131936 52.3000 -26.6000 EX 40 -4 3 118
1936252N13312 1936 49 NA NA NOT_NAMED 1936-09-25 09:00:00 ET 52.2349 -26.3501 main 1077 1056 P_____________ AL131936 52.2349 -26.3501 EX 40 -4 3 108
1936252N13312 1936 49 NA NA NOT_NAMED 1936-09-25 12:00:00 ET 52.2000 -26.1000 40 hurdat_atl main 1056 1043 O_____________ hurdat_atl AL131936 52.2000 -26.1000 EX 40 -4 3 98
1936252N13312 1936 49 NA NA NOT_NAMED 1936-09-25 15:00:00 ET 52.1926 -25.8500 main 1043 1023 P_____________ AL131936 52.1926 -25.8500 EX 37 -4 3 90
1936252N13312 1936 49 NA NA NOT_NAMED 1936-09-25 18:00:00 ET 52.2000 -25.6000 35 hurdat_atl main 1023 O_____________ hurdat_atl AL131936 52.2000 -25.6000 EX 35 -4 3 87

IBTrACS Databaseについて

本データベースは、米国NOAAが公開する1842年以降の世界の熱帯低気圧のベストトラックデータアーカイブInternational Best Track Archive for Climate Stewardship (IBTrACS)を、ウェブで閲覧しやすい形式に変換したものです。

最終更新日:2021-12-01